sensor_id;sensor_type;location;lat;lon;timestamp;P1;durP1;ratioP1;P2;durP2;ratioP2
62256;SDS011;48240;52.962;5.790;2024-02-23T04:50:45;1.80;;;0.60;;
62256;SDS011;48240;52.962;5.790;2024-02-23T04:53:11;1.88;;;0.70;;
62256;SDS011;48240;52.962;5.790;2024-02-23T04:55:37;2.90;;;0.70;;
62256;SDS011;48240;52.962;5.790;2024-02-23T04:58:03;1.63;;;0.60;;
62256;SDS011;48240;52.962;5.790;2024-02-23T05:00:29;4.75;;;0.80;;
62256;SDS011;48240;52.962;5.790;2024-02-23T05:03:01;3.50;;;0.93;;
62256;SDS011;48240;52.962;5.790;2024-02-23T05:05:29;1.38;;;0.60;;
62256;SDS011;48240;52.962;5.790;2024-02-23T05:07:55;1.63;;;0.60;;
62256;SDS011;48240;52.962;5.790;2024-02-23T05:10:21;2.42;;;0.70;;
62256;SDS011;48240;52.962;5.790;2024-02-23T05:12:48;2.28;;;0.70;;
62256;SDS011;48240;52.962;5.790;2024-02-23T05:15:14;1.10;;;0.68;;
62256;SDS011;48240;52.962;5.790;2024-02-23T05:17:40;4.05;;;0.80;;
62256;SDS011;48240;52.962;5.790;2024-02-23T05:20:07;1.98;;;0.70;;
62256;SDS011;48240;52.962;5.790;2024-02-23T05:22:33;1.50;;;0.60;;
62256;SDS011;48240;52.962;5.790;2024-02-23T05:24:59;2.72;;;0.70;;
62256;SDS011;48240;52.962;5.790;2024-02-23T05:27:25;3.05;;;0.60;;
62256;SDS011;48240;52.962;5.790;2024-02-23T05:29:52;2.47;;;0.70;;
62256;SDS011;48240;52.962;5.790;2024-02-23T05:32:18;3.20;;;0.73;;
62256;SDS011;48240;52.962;5.790;2024-02-23T05:34:44;1.75;;;0.70;;
62256;SDS011;48240;52.962;5.790;2024-02-23T05:37:11;5.32;;;0.80;;
62256;SDS011;48240;52.962;5.790;2024-02-23T05:39:37;3.92;;;0.77;;
62256;SDS011;48240;52.962;5.790;2024-02-23T05:42:03;2.10;;;0.70;;
62256;SDS011;48240;52.962;5.790;2024-02-23T05:44:30;1.65;;;0.75;;
62256;SDS011;48240;52.962;5.790;2024-02-23T05:46:56;2.88;;;0.80;;
62256;SDS011;48240;52.962;5.790;2024-02-23T05:49:22;2.05;;;0.82;;
62256;SDS011;48240;52.962;5.790;2024-02-23T05:51:48;1.85;;;0.70;;
62256;SDS011;48240;52.962;5.790;2024-02-23T05:54:14;3.42;;;0.95;;
62256;SDS011;48240;52.962;5.790;2024-02-23T05:56:40;2.78;;;0.88;;
62256;SDS011;48240;52.962;5.790;2024-02-23T05:59:06;1.73;;;0.80;;
62256;SDS011;48240;52.962;5.790;2024-02-23T06:01:32;3.28;;;0.70;;
62256;SDS011;48240;52.962;5.790;2024-02-23T06:03:58;3.05;;;0.95;;
62256;SDS011;48240;52.962;5.790;2024-02-23T06:06:24;1.52;;;0.80;;
62256;SDS011;48240;52.962;5.790;2024-02-23T06:08:51;2.63;;;0.73;;
62256;SDS011;48240;52.962;5.790;2024-02-23T06:11:18;2.50;;;0.70;;
62256;SDS011;48240;52.962;5.790;2024-02-23T06:13:44;2.35;;;0.68;;
62256;SDS011;48240;52.962;5.790;2024-02-23T06:16:10;1.92;;;0.70;;
62256;SDS011;48240;52.962;5.790;2024-02-23T06:18:37;3.70;;;0.90;;
62256;SDS011;48240;52.962;5.790;2024-02-23T06:21:15;2.00;;;0.65;;
62256;SDS011;48240;52.962;5.790;2024-02-23T06:23:42;2.17;;;0.60;;
62256;SDS011;48240;52.962;5.790;2024-02-23T06:26:09;1.88;;;0.50;;
62256;SDS011;48240;52.962;5.790;2024-02-23T06:28:35;2.58;;;0.80;;
62256;SDS011;48240;52.962;5.790;2024-02-23T06:31:06;3.80;;;0.90;;
62256;SDS011;48240;52.962;5.790;2024-02-23T06:33:32;1.90;;;0.57;;
62256;SDS011;48240;52.962;5.790;2024-02-23T06:35:58;3.22;;;0.70;;
62256;SDS011;48240;52.962;5.790;2024-02-23T06:38:24;1.83;;;0.70;;
62256;SDS011;48240;52.962;5.790;2024-02-23T06:40:51;1.52;;;0.68;;
62256;SDS011;48240;52.962;5.790;2024-02-23T06:43:17;1.70;;;0.80;;
62256;SDS011;48240;52.962;5.790;2024-02-23T06:45:44;1.92;;;0.68;;
62256;SDS011;48240;52.962;5.790;2024-02-23T06:48:10;2.75;;;0.75;;
62256;SDS011;48240;52.962;5.790;2024-02-23T06:50:36;2.75;;;0.73;;
62256;SDS011;48240;52.962;5.790;2024-02-23T06:53:02;4.45;;;0.70;;
62256;SDS011;48240;52.962;5.790;2024-02-23T06:55:28;2.72;;;1.10;;
62256;SDS011;48240;52.962;5.790;2024-02-23T06:57:54;3.15;;;0.88;;
62256;SDS011;48240;52.962;5.790;2024-02-23T07:00:21;3.17;;;0.85;;
62256;SDS011;48240;52.962;5.790;2024-02-23T07:02:47;2.88;;;0.80;;
62256;SDS011;48240;52.962;5.790;2024-02-23T07:05:13;4.22;;;1.02;;
62256;SDS011;48240;52.962;5.790;2024-02-23T07:07:39;2.72;;;0.90;;
62256;SDS011;48240;52.962;5.790;2024-02-23T07:10:06;2.33;;;0.93;;
62256;SDS011;48240;52.962;5.790;2024-02-23T07:12:32;2.15;;;0.70;;
62256;SDS011;48240;52.962;5.790;2024-02-23T07:14:59;3.47;;;0.98;;
62256;SDS011;48240;52.962;5.790;2024-02-23T07:17:25;3.17;;;0.90;;
62256;SDS011;48240;52.962;5.790;2024-02-23T07:19:51;2.60;;;0.90;;
62256;SDS011;48240;52.962;5.790;2024-02-23T07:22:18;2.45;;;1.15;;
62256;SDS011;48240;52.962;5.790;2024-02-23T07:24:45;2.00;;;0.77;;
62256;SDS011;48240;52.962;5.790;2024-02-23T07:27:11;5.20;;;1.10;;
62256;SDS011;48240;52.962;5.790;2024-02-23T07:29:37;2.30;;;0.80;;
62256;SDS011;48240;52.962;5.790;2024-02-23T07:32:03;2.15;;;0.70;;
62256;SDS011;48240;52.962;5.790;2024-02-23T07:34:30;2.08;;;0.70;;
62256;SDS011;48240;52.962;5.790;2024-02-23T07:36:57;3.20;;;0.88;;
62256;SDS011;48240;52.962;5.790;2024-02-23T07:39:23;3.30;;;0.90;;
62256;SDS011;48240;52.962;5.790;2024-02-23T07:41:49;2.40;;;0.88;;
62256;SDS011;48240;52.962;5.790;2024-02-23T07:44:15;1.98;;;0.73;;
62256;SDS011;48240;52.962;5.790;2024-02-23T07:46:41;3.83;;;0.90;;
62256;SDS011;48240;52.962;5.790;2024-02-23T07:49:07;2.47;;;0.90;;
62256;SDS011;48240;52.962;5.790;2024-02-23T07:51:34;2.45;;;0.80;;
62256;SDS011;48240;52.962;5.790;2024-02-23T07:54:01;2.28;;;0.80;;
62256;SDS011;48240;52.962;5.790;2024-02-23T07:56:27;2.90;;;0.70;;
62256;SDS011;48240;52.962;5.790;2024-02-23T07:58:54;3.33;;;1.08;;
62256;SDS011;48240;52.962;5.790;2024-02-23T08:01:20;2.38;;;1.00;;
62256;SDS011;48240;52.962;5.790;2024-02-23T08:03:46;2.75;;;0.93;;
62256;SDS011;48240;52.962;5.790;2024-02-23T08:06:13;2.03;;;0.82;;
62256;SDS011;48240;52.962;5.790;2024-02-23T08:08:39;3.28;;;1.00;;
62256;SDS011;48240;52.962;5.790;2024-02-23T08:11:05;2.17;;;0.85;;
62256;SDS011;48240;52.962;5.790;2024-02-23T08:13:31;2.78;;;0.85;;
62256;SDS011;48240;52.962;5.790;2024-02-23T08:15:57;2.15;;;0.95;;
62256;SDS011;48240;52.962;5.790;2024-02-23T08:18:23;1.98;;;1.08;;
62256;SDS011;48240;52.962;5.790;2024-02-23T08:20:50;2.17;;;0.70;;
62256;SDS011;48240;52.962;5.790;2024-02-23T08:23:17;2.28;;;0.90;;
62256;SDS011;48240;52.962;5.790;2024-02-23T08:25:47;2.95;;;1.00;;
62256;SDS011;48240;52.962;5.790;2024-02-23T08:28:14;3.92;;;0.95;;
62256;SDS011;48240;52.962;5.790;2024-02-23T08:30:40;2.45;;;0.70;;
62256;SDS011;48240;52.962;5.790;2024-02-23T08:33:06;1.00;;;0.75;;
62256;SDS011;48240;52.962;5.790;2024-02-23T08:35:35;2.45;;;0.80;;
62256;SDS011;48240;52.962;5.790;2024-02-23T08:38:01;4.50;;;0.93;;
62256;SDS011;48240;52.962;5.790;2024-02-23T08:40:27;2.08;;;0.93;;
62256;SDS011;48240;52.962;5.790;2024-02-23T08:42:53;2.60;;;1.00;;
62256;SDS011;48240;52.962;5.790;2024-02-23T08:45:19;1.60;;;0.80;;
62256;SDS011;48240;52.962;5.790;2024-02-23T08:47:45;2.33;;;0.80;;
62256;SDS011;48240;52.962;5.790;2024-02-23T08:50:11;2.45;;;1.00;;
62256;SDS011;48240;52.962;5.790;2024-02-23T08:52:37;2.50;;;0.70;;
62256;SDS011;48240;52.962;5.790;2024-02-23T08:55:04;3.33;;;0.90;;
62256;SDS011;48240;52.962;5.790;2024-02-23T08:57:30;2.05;;;0.80;;
62256;SDS011;48240;52.962;5.790;2024-02-23T08:59:56;2.13;;;0.80;;
62256;SDS011;48240;52.962;5.790;2024-02-23T09:02:23;2.22;;;0.60;;
62256;SDS011;48240;52.962;5.790;2024-02-23T09:04:49;1.67;;;0.90;;
62256;SDS011;48240;52.962;5.790;2024-02-23T09:07:15;1.65;;;0.80;;
62256;SDS011;48240;52.962;5.790;2024-02-23T09:09:45;1.33;;;0.80;;
62256;SDS011;48240;52.962;5.790;2024-02-23T09:12:11;2.78;;;0.93;;
62256;SDS011;48240;52.962;5.790;2024-02-23T09:14:39;3.38;;;1.25;;
62256;SDS011;48240;52.962;5.790;2024-02-23T09:17:06;3.53;;;0.70;;
62256;SDS011;48240;52.962;5.790;2024-02-23T09:19:33;2.80;;;0.77;;
62256;SDS011;48240;52.962;5.790;2024-02-23T09:21:59;2.08;;;1.00;;
62256;SDS011;48240;52.962;5.790;2024-02-23T09:24:27;3.58;;;0.90;;
62256;SDS011;48240;52.962;5.790;2024-02-23T09:26:53;6.93;;;1.13;;
62256;SDS011;48240;52.962;5.790;2024-02-23T09:29:19;5.75;;;0.80;;
62256;SDS011;48240;52.962;5.790;2024-02-23T09:31:46;4.88;;;0.98;;
62256;SDS011;48240;52.962;5.790;2024-02-23T09:34:13;4.80;;;0.90;;
62256;SDS011;48240;52.962;5.790;2024-02-23T09:36:39;2.92;;;0.80;;
62256;SDS011;48240;52.962;5.790;2024-02-23T09:39:05;2.55;;;0.80;;
62256;SDS011;48240;52.962;5.790;2024-02-23T09:41:31;11.10;;;0.82;;
62256;SDS011;48240;52.962;5.790;2024-02-23T09:44:00;4.38;;;0.70;;
62256;SDS011;48240;52.962;5.790;2024-02-23T09:46:27;16.10;;;1.08;;
62256;SDS011;48240;52.962;5.790;2024-02-23T09:48:53;2.22;;;0.80;;
62256;SDS011;48240;52.962;5.790;2024-02-23T09:51:20;4.75;;;0.80;;
62256;SDS011;48240;52.962;5.790;2024-02-23T09:53:49;2.63;;;0.90;;
62256;SDS011;48240;52.962;5.790;2024-02-23T09:56:16;1.85;;;0.82;;
62256;SDS011;48240;52.962;5.790;2024-02-23T09:58:44;4.88;;;0.93;;
62256;SDS011;48240;52.962;5.790;2024-02-23T10:01:12;6.90;;;0.98;;
62256;SDS011;48240;52.962;5.790;2024-02-23T10:03:40;7.88;;;1.23;;
62256;SDS011;48240;52.962;5.790;2024-02-23T10:06:07;5.00;;;0.95;;
62256;SDS011;48240;52.962;5.790;2024-02-23T10:08:33;4.10;;;0.90;;
62256;SDS011;48240;52.962;5.790;2024-02-23T10:11:01;2.17;;;1.00;;
62256;SDS011;48240;52.962;5.790;2024-02-23T10:13:29;1.98;;;0.77;;
62256;SDS011;48240;52.962;5.790;2024-02-23T10:15:55;3.78;;;1.27;;
62256;SDS011;48240;52.962;5.790;2024-02-23T10:18:21;3.28;;;1.30;;
62256;SDS011;48240;52.962;5.790;2024-02-23T10:20:48;5.63;;;1.30;;
62256;SDS011;48240;52.962;5.790;2024-02-23T10:23:15;4.65;;;1.00;;
62256;SDS011;48240;52.962;5.790;2024-02-23T10:25:41;3.10;;;1.02;;
62256;SDS011;48240;52.962;5.790;2024-02-23T10:28:07;2.92;;;0.88;;
62256;SDS011;48240;52.962;5.790;2024-02-23T10:30:36;5.80;;;1.00;;
62256;SDS011;48240;52.962;5.790;2024-02-23T10:33:05;1.90;;;0.95;;
62256;SDS011;48240;52.962;5.790;2024-02-23T10:35:32;3.33;;;0.90;;
62256;SDS011;48240;52.962;5.790;2024-02-23T10:38:00;2.38;;;0.80;;
62256;SDS011;48240;52.962;5.790;2024-02-23T10:40:27;3.28;;;0.90;;
62256;SDS011;48240;52.962;5.790;2024-02-23T10:42:57;4.63;;;1.10;;
62256;SDS011;48240;52.962;5.790;2024-02-23T10:45:27;3.65;;;0.80;;
62256;SDS011;48240;52.962;5.790;2024-02-23T10:47:54;2.35;;;1.00;;
62256;SDS011;48240;52.962;5.790;2024-02-23T10:50:21;3.00;;;0.88;;
62256;SDS011;48240;52.962;5.790;2024-02-23T10:52:47;2.55;;;0.95;;
62256;SDS011;48240;52.962;5.790;2024-02-23T10:55:14;3.17;;;1.20;;
62256;SDS011;48240;52.962;5.790;2024-02-23T10:57:41;3.08;;;1.00;;
62256;SDS011;48240;52.962;5.790;2024-02-23T11:00:08;4.30;;;1.08;;
62256;SDS011;48240;52.962;5.790;2024-02-23T11:02:53;2.28;;;0.82;;
62256;SDS011;48240;52.962;5.790;2024-02-23T11:05:19;3.33;;;0.88;;
62256;SDS011;48240;52.962;5.790;2024-02-23T11:07:46;5.22;;;1.00;;
62256;SDS011;48240;52.962;5.790;2024-02-23T11:10:16;3.23;;;0.90;;
62256;SDS011;48240;52.962;5.790;2024-02-23T11:12:43;3.50;;;0.88;;
62256;SDS011;48240;52.962;5.790;2024-02-23T11:15:09;2.97;;;0.80;;
62256;SDS011;48240;52.962;5.790;2024-02-23T11:17:36;4.57;;;0.82;;
62256;SDS011;48240;52.962;5.790;2024-02-23T11:20:03;2.45;;;0.90;;
62256;SDS011;48240;52.962;5.790;2024-02-23T11:22:31;2.72;;;0.98;;
62256;SDS011;48240;52.962;5.790;2024-02-23T11:25:04;2.40;;;1.10;;
62256;SDS011;48240;52.962;5.790;2024-02-23T11:27:37;5.03;;;1.25;;
62256;SDS011;48240;52.962;5.790;2024-02-23T11:30:07;4.97;;;1.50;;
62256;SDS011;48240;52.962;5.790;2024-02-23T11:32:43;3.07;;;1.37;;
62256;SDS011;48240;52.962;5.790;2024-02-23T11:35:11;3.50;;;1.30;;
62256;SDS011;48240;52.962;5.790;2024-02-23T11:37:46;4.38;;;1.30;;
62256;SDS011;48240;52.962;5.790;2024-02-23T11:40:12;1.88;;;1.15;;
62256;SDS011;48240;52.962;5.790;2024-02-23T11:42:40;3.58;;;1.23;;
62256;SDS011;48240;52.962;5.790;2024-02-23T11:45:06;3.45;;;1.05;;
62256;SDS011;48240;52.962;5.790;2024-02-23T11:47:32;3.15;;;1.10;;
62256;SDS011;48240;52.962;5.790;2024-02-23T11:49:59;2.22;;;1.02;;
62256;SDS011;48240;52.962;5.790;2024-02-23T11:52:25;3.15;;;1.58;;
62256;SDS011;48240;52.962;5.790;2024-02-23T11:54:51;4.30;;;1.13;;
62256;SDS011;48240;52.962;5.790;2024-02-23T11:57:18;3.05;;;1.20;;
62256;SDS011;48240;52.962;5.790;2024-02-23T11:59:44;2.80;;;1.00;;
62256;SDS011;48240;52.962;5.790;2024-02-23T12:02:10;3.15;;;1.10;;
62256;SDS011;48240;52.962;5.790;2024-02-23T12:04:38;3.53;;;1.10;;
62256;SDS011;48240;52.962;5.790;2024-02-23T12:07:04;2.80;;;0.80;;
62256;SDS011;48240;52.962;5.790;2024-02-23T12:09:30;2.00;;;1.00;;
62256;SDS011;48240;52.962;5.790;2024-02-23T12:11:56;3.40;;;1.10;;
62256;SDS011;48240;52.962;5.790;2024-02-23T12:14:22;2.83;;;1.00;;
62256;SDS011;48240;52.962;5.790;2024-02-23T12:16:49;3.28;;;1.00;;
62256;SDS011;48240;52.962;5.790;2024-02-23T12:19:17;3.08;;;0.95;;
62256;SDS011;48240;52.962;5.790;2024-02-23T12:21:45;6.10;;;1.30;;
62256;SDS011;48240;52.962;5.790;2024-02-23T12:24:12;3.20;;;0.90;;
62256;SDS011;48240;52.962;5.790;2024-02-23T12:26:38;1.80;;;0.90;;
62256;SDS011;48240;52.962;5.790;2024-02-23T12:29:05;2.03;;;0.88;;
62256;SDS011;48240;52.962;5.790;2024-02-23T12:31:31;2.95;;;1.30;;
62256;SDS011;48240;52.962;5.790;2024-02-23T12:33:58;2.40;;;0.82;;
62256;SDS011;48240;52.962;5.790;2024-02-23T12:36:24;3.88;;;1.20;;
62256;SDS011;48240;52.962;5.790;2024-02-23T12:38:50;2.08;;;1.00;;
62256;SDS011;48240;52.962;5.790;2024-02-23T12:41:16;2.67;;;1.15;;
62256;SDS011;48240;52.962;5.790;2024-02-23T12:43:42;3.22;;;1.00;;
62256;SDS011;48240;52.962;5.790;2024-02-23T12:46:08;3.53;;;1.00;;
62256;SDS011;48240;52.962;5.790;2024-02-23T12:48:38;3.17;;;1.00;;
62256;SDS011;48240;52.962;5.790;2024-02-23T12:51:04;2.40;;;1.00;;
62256;SDS011;48240;52.962;5.790;2024-02-23T12:56:03;3.42;;;1.00;;
62256;SDS011;48240;52.962;5.790;2024-02-23T12:58:30;3.60;;;1.00;;
62256;SDS011;48240;52.962;5.790;2024-02-23T13:00:56;2.47;;;1.00;;
62256;SDS011;48240;52.962;5.790;2024-02-23T13:03:23;2.63;;;0.98;;
62256;SDS011;48240;52.962;5.790;2024-02-23T13:05:49;2.15;;;0.90;;
62256;SDS011;48240;52.962;5.790;2024-02-23T13:08:15;3.05;;;0.82;;
62256;SDS011;48240;52.962;5.790;2024-02-23T13:10:43;2.08;;;0.90;;
62256;SDS011;48240;52.962;5.790;2024-02-23T13:13:09;1.50;;;0.88;;
62256;SDS011;48240;52.962;5.790;2024-02-23T13:15:35;2.70;;;1.05;;
62256;SDS011;48240;52.962;5.790;2024-02-23T13:18:04;2.70;;;0.75;;
62256;SDS011;48240;52.962;5.790;2024-02-23T13:20:31;3.65;;;0.98;;
62256;SDS011;48240;52.962;5.790;2024-02-23T13:22:57;2.97;;;1.05;;
62256;SDS011;48240;52.962;5.790;2024-02-23T13:25:23;1.98;;;1.00;;
62256;SDS011;48240;52.962;5.790;2024-02-23T13:27:49;4.75;;;1.10;;
62256;SDS011;48240;52.962;5.790;2024-02-23T13:30:15;3.47;;;1.27;;
62256;SDS011;48240;52.962;5.790;2024-02-23T13:32:41;2.63;;;0.80;;
62256;SDS011;48240;52.962;5.790;2024-02-23T13:35:07;4.03;;;1.13;;
62256;SDS011;48240;52.962;5.790;2024-02-23T13:37:34;2.28;;;0.80;;
62256;SDS011;48240;52.962;5.790;2024-02-23T13:40:00;2.67;;;0.80;;
62256;SDS011;48240;52.962;5.790;2024-02-23T13:42:26;1.92;;;0.80;;
62256;SDS011;48240;52.962;5.790;2024-02-23T13:44:52;3.22;;;0.98;;
62256;SDS011;48240;52.962;5.790;2024-02-23T13:47:18;2.60;;;1.00;;
62256;SDS011;48240;52.962;5.790;2024-02-23T13:49:44;1.35;;;0.88;;
62256;SDS011;48240;52.962;5.790;2024-02-23T13:52:10;2.42;;;1.00;;
62256;SDS011;48240;52.962;5.790;2024-02-23T13:54:36;2.95;;;1.05;;
62256;SDS011;48240;52.962;5.790;2024-02-23T13:57:02;2.05;;;0.98;;
62256;SDS011;48240;52.962;5.790;2024-02-23T13:59:29;2.88;;;0.90;;
62256;SDS011;48240;52.962;5.790;2024-02-23T14:01:55;2.75;;;1.13;;
62256;SDS011;48240;52.962;5.790;2024-02-23T14:04:21;2.03;;;1.00;;
62256;SDS011;48240;52.962;5.790;2024-02-23T14:06:47;2.35;;;1.08;;
62256;SDS011;48240;52.962;5.790;2024-02-23T14:09:13;2.13;;;1.10;;
62256;SDS011;48240;52.962;5.790;2024-02-23T14:11:39;2.17;;;1.15;;
62256;SDS011;48240;52.962;5.790;2024-02-23T14:14:05;1.83;;;1.02;;
62256;SDS011;48240;52.962;5.790;2024-02-23T14:16:33;3.28;;;1.15;;
62256;SDS011;48240;52.962;5.790;2024-02-23T14:19:00;2.50;;;1.20;;
62256;SDS011;48240;52.962;5.790;2024-02-23T14:21:26;2.88;;;1.00;;
62256;SDS011;48240;52.962;5.790;2024-02-23T14:23:52;1.95;;;0.80;;
62256;SDS011;48240;52.962;5.790;2024-02-23T14:26:18;2.83;;;1.23;;
62256;SDS011;48240;52.962;5.790;2024-02-23T14:28:44;3.90;;;1.20;;
62256;SDS011;48240;52.962;5.790;2024-02-23T14:31:10;5.70;;;1.40;;
62256;SDS011;48240;52.962;5.790;2024-02-23T14:33:36;2.63;;;1.02;;
62256;SDS011;48240;52.962;5.790;2024-02-23T14:36:03;4.05;;;1.08;;
62256;SDS011;48240;52.962;5.790;2024-02-23T14:38:30;2.13;;;0.90;;
62256;SDS011;48240;52.962;5.790;2024-02-23T14:40:56;6.03;;;1.30;;
62256;SDS011;48240;52.962;5.790;2024-02-23T14:43:22;3.15;;;1.02;;
62256;SDS011;48240;52.962;5.790;2024-02-23T14:45:48;3.15;;;1.15;;
62256;SDS011;48240;52.962;5.790;2024-02-23T14:48:16;1.83;;;1.00;;
62256;SDS011;48240;52.962;5.790;2024-02-23T14:50:42;2.22;;;1.20;;
62256;SDS011;48240;52.962;5.790;2024-02-23T14:53:08;2.17;;;1.05;;
62256;SDS011;48240;52.962;5.790;2024-02-23T14:55:35;3.08;;;1.13;;
62256;SDS011;48240;52.962;5.790;2024-02-23T14:58:01;1.65;;;1.27;;
62256;SDS011;48240;52.962;5.790;2024-02-23T15:00:27;3.95;;;1.20;;
62256;SDS011;48240;52.962;5.790;2024-02-23T15:02:55;2.13;;;1.15;;
62256;SDS011;48240;52.962;5.790;2024-02-23T15:05:22;1.73;;;0.98;;
62256;SDS011;48240;52.962;5.790;2024-02-23T15:07:48;4.18;;;1.00;;
62256;SDS011;48240;52.962;5.790;2024-02-23T15:10:14;2.35;;;1.02;;
62256;SDS011;48240;52.962;5.790;2024-02-23T15:12:40;2.78;;;1.33;;
62256;SDS011;48240;52.962;5.790;2024-02-23T15:15:06;2.45;;;1.17;;
62256;SDS011;48240;52.962;5.790;2024-02-23T15:17:33;3.28;;;1.10;;
62256;SDS011;48240;52.962;5.790;2024-02-23T15:19:59;3.08;;;1.15;;
62256;SDS011;48240;52.962;5.790;2024-02-23T15:22:25;3.17;;;1.10;;
62256;SDS011;48240;52.962;5.790;2024-02-23T15:24:51;2.92;;;1.17;;
62256;SDS011;48240;52.962;5.790;2024-02-23T15:27:20;3.40;;;1.80;;
62256;SDS011;48240;52.962;5.790;2024-02-23T15:29:47;3.05;;;1.08;;
62256;SDS011;48240;52.962;5.790;2024-02-23T15:32:13;3.85;;;1.20;;
62256;SDS011;48240;52.962;5.790;2024-02-23T15:34:40;3.72;;;1.23;;
62256;SDS011;48240;52.962;5.790;2024-02-23T15:37:06;3.10;;;1.10;;
62256;SDS011;48240;52.962;5.790;2024-02-23T15:39:32;7.57;;;1.30;;
62256;SDS011;48240;52.962;5.790;2024-02-23T15:41:58;3.83;;;1.13;;
62256;SDS011;48240;52.962;5.790;2024-02-23T15:44:24;6.68;;;1.20;;
62256;SDS011;48240;52.962;5.790;2024-02-23T15:46:50;4.90;;;1.30;;
62256;SDS011;48240;52.962;5.790;2024-02-23T15:49:17;4.60;;;1.23;;
62256;SDS011;48240;52.962;5.790;2024-02-23T15:51:46;4.57;;;1.35;;
62256;SDS011;48240;52.962;5.790;2024-02-23T15:54:12;8.15;;;1.40;;
62256;SDS011;48240;52.962;5.790;2024-02-23T15:56:38;4.70;;;1.30;;
62256;SDS011;48240;52.962;5.790;2024-02-23T15:59:05;7.22;;;1.95;;
62256;SDS011;48240;52.962;5.790;2024-02-23T16:01:36;7.47;;;1.23;;
62256;SDS011;48240;52.962;5.790;2024-02-23T16:04:03;5.53;;;1.30;;
62256;SDS011;48240;52.962;5.790;2024-02-23T16:06:29;7.90;;;1.60;;
62256;SDS011;48240;52.962;5.790;2024-02-23T16:08:59;5.18;;;1.20;;
62256;SDS011;48240;52.962;5.790;2024-02-23T16:11:25;6.05;;;1.40;;
62256;SDS011;48240;52.962;5.790;2024-02-23T16:13:54;3.65;;;1.13;;
62256;SDS011;48240;52.962;5.790;2024-02-23T16:16:20;5.97;;;1.20;;
62256;SDS011;48240;52.962;5.790;2024-02-23T16:18:47;7.95;;;1.20;;
62256;SDS011;48240;52.962;5.790;2024-02-23T16:21:13;4.90;;;1.38;;
62256;SDS011;48240;52.962;5.790;2024-02-23T16:23:40;6.57;;;1.00;;
62256;SDS011;48240;52.962;5.790;2024-02-23T16:26:07;3.85;;;1.05;;
62256;SDS011;48240;52.962;5.790;2024-02-23T16:28:33;4.65;;;1.58;;
62256;SDS011;48240;52.962;5.790;2024-02-23T16:30:59;1.95;;;0.98;;
62256;SDS011;48240;52.962;5.790;2024-02-23T16:33:25;6.18;;;1.20;;
62256;SDS011;48240;52.962;5.790;2024-02-23T16:35:52;4.18;;;1.30;;
62256;SDS011;48240;52.962;5.790;2024-02-23T16:38:22;2.45;;;0.90;;
62256;SDS011;48240;52.962;5.790;2024-02-23T16:40:49;7.53;;;1.50;;
62256;SDS011;48240;52.962;5.790;2024-02-23T16:43:15;6.68;;;1.52;;
62256;SDS011;48240;52.962;5.790;2024-02-23T16:45:41;7.03;;;1.30;;
62256;SDS011;48240;52.962;5.790;2024-02-23T16:48:07;5.47;;;1.30;;
62256;SDS011;48240;52.962;5.790;2024-02-23T16:50:38;15.32;;;1.95;;
62256;SDS011;48240;52.962;5.790;2024-02-23T16:53:07;5.20;;;1.67;;
62256;SDS011;48240;52.962;5.790;2024-02-23T16:55:33;11.38;;;2.20;;
62256;SDS011;48240;52.962;5.790;2024-02-23T16:57:59;8.52;;;2.20;;
62256;SDS011;48240;52.962;5.790;2024-02-23T17:00:26;11.27;;;2.38;;
62256;SDS011;48240;52.962;5.790;2024-02-23T17:02:53;9.60;;;2.33;;
62256;SDS011;48240;52.962;5.790;2024-02-23T17:05:22;8.18;;;2.63;;
62256;SDS011;48240;52.962;5.790;2024-02-23T17:07:48;9.45;;;2.50;;
62256;SDS011;48240;52.962;5.790;2024-02-23T17:10:14;7.85;;;2.10;;
62256;SDS011;48240;52.962;5.790;2024-02-23T17:12:43;7.72;;;2.10;;
62256;SDS011;48240;52.962;5.790;2024-02-23T17:15:14;12.00;;;2.37;;
62256;SDS011;48240;52.962;5.790;2024-02-23T17:17:40;10.13;;;1.92;;
62256;SDS011;48240;52.962;5.790;2024-02-23T17:20:07;8.05;;;1.77;;
62256;SDS011;48240;52.962;5.790;2024-02-23T17:22:33;6.45;;;1.90;;
62256;SDS011;48240;52.962;5.790;2024-02-23T17:25:00;5.00;;;1.80;;
62256;SDS011;48240;52.962;5.790;2024-02-23T17:27:26;5.72;;;1.75;;
62256;SDS011;48240;52.962;5.790;2024-02-23T17:29:52;9.40;;;2.15;;
62256;SDS011;48240;52.962;5.790;2024-02-23T17:32:18;7.45;;;2.13;;
62256;SDS011;48240;52.962;5.790;2024-02-23T17:34:44;7.38;;;2.00;;
62256;SDS011;48240;52.962;5.790;2024-02-23T17:37:10;4.90;;;1.45;;
62256;SDS011;48240;52.962;5.790;2024-02-23T17:39:36;5.10;;;1.52;;
62256;SDS011;48240;52.962;5.790;2024-02-23T17:42:03;4.45;;;1.92;;
62256;SDS011;48240;52.962;5.790;2024-02-23T17:44:29;7.57;;;1.65;;
62256;SDS011;48240;52.962;5.790;2024-02-23T17:46:55;7.32;;;1.75;;
62256;SDS011;48240;52.962;5.790;2024-02-23T17:49:21;8.18;;;2.58;;
62256;SDS011;48240;52.962;5.790;2024-02-23T17:51:47;3.63;;;1.48;;
62256;SDS011;48240;52.962;5.790;2024-02-23T17:54:13;5.97;;;1.80;;
62256;SDS011;48240;52.962;5.790;2024-02-23T17:56:40;3.15;;;1.27;;
62256;SDS011;48240;52.962;5.790;2024-02-23T17:59:06;4.47;;;1.30;;
62256;SDS011;48240;52.962;5.790;2024-02-23T18:01:32;5.30;;;1.60;;
62256;SDS011;48240;52.962;5.790;2024-02-23T18:03:58;7.45;;;1.20;;
62256;SDS011;48240;52.962;5.790;2024-02-23T18:06:25;2.35;;;1.30;;
62256;SDS011;48240;52.962;5.790;2024-02-23T18:08:51;3.83;;;1.40;;
62256;SDS011;48240;52.962;5.790;2024-02-23T18:11:17;4.95;;;1.50;;
62256;SDS011;48240;52.962;5.790;2024-02-23T18:13:45;4.90;;;1.42;;
62256;SDS011;48240;52.962;5.790;2024-02-23T18:16:11;4.60;;;1.30;;
62256;SDS011;48240;52.962;5.790;2024-02-23T18:18:39;3.28;;;1.48;;
62256;SDS011;48240;52.962;5.790;2024-02-23T18:21:05;5.38;;;1.55;;
62256;SDS011;48240;52.962;5.790;2024-02-23T18:23:32;4.00;;;1.15;;
62256;SDS011;48240;52.962;5.790;2024-02-23T18:25:58;2.70;;;1.10;;
62256;SDS011;48240;52.962;5.790;2024-02-23T18:28:25;3.72;;;1.42;;
62256;SDS011;48240;52.962;5.790;2024-02-23T18:30:51;2.78;;;1.40;;
62256;SDS011;48240;52.962;5.790;2024-02-23T18:33:17;3.67;;;1.40;;
62256;SDS011;48240;52.962;5.790;2024-02-23T18:35:43;2.50;;;1.00;;
62256;SDS011;48240;52.962;5.790;2024-02-23T18:38:09;3.22;;;1.23;;
62256;SDS011;48240;52.962;5.790;2024-02-23T18:40:35;3.55;;;1.17;;
62256;SDS011;48240;52.962;5.790;2024-02-23T18:43:02;3.53;;;1.20;;
62256;SDS011;48240;52.962;5.790;2024-02-23T18:45:29;3.65;;;1.50;;
62256;SDS011;48240;52.962;5.790;2024-02-23T18:47:55;1.98;;;0.93;;
62256;SDS011;48240;52.962;5.790;2024-02-23T18:50:21;3.05;;;1.10;;
62256;SDS011;48240;52.962;5.790;2024-02-23T18:52:47;2.63;;;1.35;;
62256;SDS011;48240;52.962;5.790;2024-02-23T18:55:13;3.58;;;1.33;;
62256;SDS011;48240;52.962;5.790;2024-02-23T18:57:39;2.92;;;1.10;;
62256;SDS011;48240;52.962;5.790;2024-02-23T19:00:06;4.85;;;1.60;;
62256;SDS011;48240;52.962;5.790;2024-02-23T19:02:32;3.83;;;1.30;;
62256;SDS011;48240;52.962;5.790;2024-02-23T19:05:00;3.05;;;1.17;;
62256;SDS011;48240;52.962;5.790;2024-02-23T19:07:26;2.03;;;1.02;;
62256;SDS011;48240;52.962;5.790;2024-02-23T19:09:52;5.93;;;1.33;;
62256;SDS011;48240;52.962;5.790;2024-02-23T19:12:19;3.92;;;1.20;;
62256;SDS011;48240;52.962;5.790;2024-02-23T19:14:45;5.57;;;1.70;;
62256;SDS011;48240;52.962;5.790;2024-02-23T19:17:11;15.80;;;1.52;;
62256;SDS011;48240;52.962;5.790;2024-02-23T19:19:37;2.72;;;1.08;;
62256;SDS011;48240;52.962;5.790;2024-02-23T19:22:03;2.92;;;1.00;;
62256;SDS011;48240;52.962;5.790;2024-02-23T19:24:29;4.75;;;1.42;;
62256;SDS011;48240;52.962;5.790;2024-02-23T19:26:56;3.65;;;1.02;;
62256;SDS011;48240;52.962;5.790;2024-02-23T19:29:22;2.17;;;1.00;;
62256;SDS011;48240;52.962;5.790;2024-02-23T19:31:48;4.78;;;1.20;;
62256;SDS011;48240;52.962;5.790;2024-02-23T19:34:14;3.45;;;1.00;;
62256;SDS011;48240;52.962;5.790;2024-02-23T19:36:40;2.28;;;0.90;;